Accueil
METAR-TAF:

METAR-TAF

Aéroports :

Aéroport d'Auckland

Auckland, Nouvelle-Zélande

latitude: 37-01S, longitude: 174-48E, altitude: 7 m

Observation

Le bulletin a été fait il y a 42 minutes, à 21:30 UTC
Vent 3 kt de sud
Température 16°C
Humidité 77%
Pression 1023 hPa
Visibilité 10 km ou plus

METAR: NZAA 232130Z AUTO 19003KT 9999 BKN021/// OVC026/// 16/12 Q1023 NOSIG

Heure: 11:12 (22:12 UTC)

Prévision

Le bulletin a été fait il y a 5 heures et 9 minutes, à 17:03 UTC
Prévision valable du 23 à 18 UTC au 24 à 18 UTC
Vent 5 kt de sud
Visibilité 10 km ou plus
Nuages épars à une hauteur de 2000 ft
Evoluant progressivement
du 24 à 00 UTC au 24 à 02 UTC
Vent 10 kt de ouest/sud-ouest
Evoluant progressivement
du 24 à 08 UTC au 24 à 10 UTC
Vent 2 kt de direction variable

TAF: NZAA 231703Z 2318/2418 18005KT 9999 SCT020 BECMG 2400/2402 25010KT BECMG 2408/2410 VRB02KT

Observations et prévisions météorologiques de plus de 4000 aéroports (messages METAR et TAF).

Les stations disponibles sont représentées par des disques jaunes et rouges sur la carte.

Passer la souris dessus pour voir le nom de la station.

Cliquer dessus pour voir les observations et prévisions météorologiques.

Pour changer de carte: cliquez sur les boutons verts avec une croix noire pour zoomer, sur le bouton vert avec un tiret pour effectuer un zoom arrière, ou sur les flèches vertes pour les cartes adjacentes.


METAR-TAF: